createdAt,value
2019-04-22T00:01:40.467Z,48.10
2019-04-22T00:04:55.035Z,49.85
2019-04-22T00:08:21.005Z,47.94
2019-04-22T00:11:26.027Z,50.03
2019-04-22T00:14:23.844Z,50.49
2019-04-22T00:17:38.612Z,46.87
2019-04-22T00:20:43.881Z,50.20
2019-04-22T00:23:47.835Z,48.58
2019-04-22T00:26:50.138Z,47.27
2019-04-22T00:30:09.172Z,46.50
2019-04-22T00:33:08.055Z,46.72
2019-04-22T00:36:17.823Z,47.96
2019-04-22T00:39:22.000Z,47.62
2019-04-22T00:42:28.941Z,46.85
2019-04-22T00:45:33.140Z,46.86
2019-04-22T00:48:43.041Z,47.30
2019-04-22T00:52:05.183Z,46.91
2019-04-22T00:54:54.438Z,47.12
2019-04-22T00:57:54.666Z,47.96
2019-04-22T01:01:02.252Z,46.73
2019-04-22T01:04:14.351Z,46.52
2019-04-22T01:07:11.429Z,46.96
2019-04-22T01:10:19.008Z,46.77
2019-04-22T01:13:25.156Z,47.95
2019-04-22T01:16:29.802Z,46.31
2019-04-22T01:19:47.146Z,45.36
2019-04-22T01:22:40.606Z,46.37
2019-04-22T01:25:46.386Z,45.00
2019-04-22T01:28:46.445Z,45.31
2019-04-22T01:31:41.606Z,45.82
2019-04-22T01:35:00.637Z,47.52
2019-04-22T01:38:11.985Z,44.33
2019-04-22T01:41:22.997Z,44.67
2019-04-22T01:47:38.031Z,45.56
2019-04-22T01:50:36.851Z,44.92
2019-04-22T01:53:50.436Z,48.33
2019-04-22T01:56:53.973Z,48.40
2019-04-22T01:59:45.817Z,47.11
2019-04-22T02:03:05.561Z,48.24
2019-04-22T02:06:07.578Z,49.82
2019-04-22T02:09:21.155Z,49.45
2019-04-22T02:12:20.009Z,50.74
2019-04-22T02:15:23.334Z,50.14
2019-04-22T02:18:31.905Z,51.63
2019-04-22T02:21:35.440Z,50.94
2019-04-22T02:24:46.234Z,51.88
2019-04-22T02:27:51.473Z,53.10
2019-04-22T02:40:09.214Z,51.12
2019-04-22T02:43:33.975Z,51.55
2019-04-22T02:49:30.114Z,52.85
2019-04-22T02:55:40.812Z,52.35
2019-04-22T03:02:09.965Z,52.52
2019-04-22T03:05:19.475Z,51.27
2019-04-22T03:14:26.296Z,52.75
2019-04-22T03:17:30.875Z,51.89
2019-04-22T03:20:29.157Z,52.00
2019-04-22T03:23:47.567Z,53.16
2019-04-22T03:26:39.047Z,52.90
2019-04-22T03:33:23.511Z,50.90
2019-04-22T03:42:46.768Z,52.41
2019-04-22T03:45:58.761Z,52.67
2019-04-22T03:49:03.806Z,54.02
2019-04-22T03:52:07.314Z,54.48
2019-04-22T03:55:15.168Z,55.17
2019-04-22T03:57:58.467Z,54.83
2019-04-22T04:01:22.998Z,53.79
2019-04-22T04:07:46.119Z,53.71
2019-04-22T04:10:35.377Z,53.98
2019-04-22T04:13:35.935Z,54.87
2019-04-22T04:16:47.703Z,54.59
2019-04-22T04:23:05.660Z,52.54
2019-04-22T04:25:57.280Z,53.98
2019-04-22T04:35:23.943Z,51.33
2019-04-22T04:38:20.795Z,51.71
2019-04-22T04:47:57.827Z,51.16
2019-04-22T04:50:54.764Z,51.48
2019-04-22T04:54:13.411Z,50.84
2019-04-22T04:57:17.409Z,51.96
2019-04-22T05:06:12.992Z,49.11
2019-04-22T05:12:35.521Z,47.02
2019-04-22T05:15:26.996Z,49.86
2019-04-22T05:18:37.292Z,46.75
2019-04-22T05:21:39.644Z,45.61
2019-04-22T05:24:47.859Z,45.36
2019-04-22T05:27:45.358Z,43.20
2019-04-22T05:30:47.634Z,44.85
2019-04-22T05:34:01.240Z,44.86
2019-04-22T05:37:05.284Z,43.22
2019-04-22T05:40:10.330Z,43.94
2019-04-22T05:43:11.058Z,42.27
2019-04-22T05:46:20.748Z,43.66
2019-04-22T05:52:25.600Z,42.61
2019-04-22T05:55:36.290Z,42.91
2019-04-22T05:58:41.513Z,42.10
2019-04-22T06:01:55.054Z,43.50
2019-04-22T06:04:54.960Z,42.40
2019-04-22T06:07:53.809Z,40.26
2019-04-22T06:10:58.121Z,43.89
2019-04-22T06:14:01.903Z,40.88
2019-04-22T06:17:20.485Z,41.23
2019-04-22T06:20:15.883Z,39.50
2019-04-22T06:26:40.630Z,39.67
2019-04-22T06:29:33.516Z,40.53
2019-04-22T06:32:42.215Z,42.54
2019-04-22T06:35:54.517Z,40.16
2019-04-22T06:38:59.075Z,40.92
2019-04-22T06:42:01.066Z,39.36
2019-04-22T06:45:04.147Z,38.83
2019-04-22T06:48:13.109Z,38.29
2019-04-22T06:51:12.380Z,39.40
2019-04-22T06:54:21.700Z,42.93
2019-04-22T06:57:25.215Z,37.91
2019-04-22T07:00:32.444Z,38.70
2019-04-22T07:03:52.347Z,38.56
2019-04-22T07:06:48.083Z,37.96
2019-04-22T07:12:53.915Z,38.03
2019-04-22T07:15:59.532Z,41.19
2019-04-22T07:19:09.233Z,37.79
2019-04-22T07:25:15.860Z,38.34
2019-04-22T07:28:20.563Z,37.79
2019-04-22T07:31:27.254Z,34.83
2019-04-22T07:47:08.375Z,33.69
2019-04-22T07:50:09.847Z,33.92
2019-04-22T07:53:05.359Z,33.71
2019-04-22T07:56:16.235Z,33.94
2019-04-22T07:59:22.461Z,33.51
2019-04-22T08:02:18.859Z,34.44
2019-04-22T08:05:37.837Z,32.35
2019-04-22T08:08:38.904Z,32.13
2019-04-22T08:14:45.634Z,35.07
2019-04-22T08:20:59.688Z,32.03
2019-04-22T08:24:06.313Z,29.73
2019-04-22T08:27:11.944Z,31.68
2019-04-22T08:30:21.982Z,29.51
2019-04-22T08:33:21.708Z,30.68
2019-04-22T08:36:26.033Z,30.77
2019-04-22T08:39:32.546Z,30.46
2019-04-22T08:42:53.333Z,29.16
2019-04-22T08:48:57.354Z,30.70
2019-04-22T08:52:01.446Z,29.29
2019-04-22T08:55:11.335Z,29.64
2019-04-22T08:58:25.583Z,30.40
2019-04-22T09:04:16.394Z,29.31
2019-04-22T09:07:31.855Z,29.63
2019-04-22T09:10:37.812Z,29.15
2019-04-22T09:13:43.352Z,28.50
2019-04-22T09:16:48.583Z,29.52
2019-04-22T09:19:55.941Z,30.37
2019-04-22T09:23:03.996Z,27.18
2019-04-22T09:26:01.338Z,28.25
2019-04-22T09:29:16.170Z,30.56
2019-04-22T09:35:30.488Z,26.85
2019-04-22T09:41:33.737Z,24.52
2019-04-22T09:44:40.338Z,25.02
2019-04-22T09:47:49.219Z,26.91
2019-04-22T09:50:47.905Z,24.87
2019-04-22T09:54:00.756Z,28.19
2019-04-22T09:56:56.506Z,22.97
2019-04-22T10:03:13.901Z,22.76
2019-04-22T10:06:24.766Z,22.54
2019-04-22T10:12:32.152Z,20.95
2019-04-22T10:15:32.355Z,23.73
2019-04-22T10:18:39.146Z,24.82
2019-04-22T10:21:57.273Z,21.17
2019-04-22T10:24:55.405Z,21.09
2019-04-22T10:28:01.849Z,16.52
2019-04-22T10:31:00.396Z,15.49
2019-04-22T10:33:58.463Z,16.24
2019-04-22T10:36:54.322Z,14.89
2019-04-22T10:39:58.784Z,16.55
2019-04-22T10:42:59.464Z,18.27
2019-04-22T10:46:04.159Z,17.18
2019-04-22T10:49:08.444Z,15.54
2019-04-22T10:52:12.945Z,15.45
2019-04-22T10:55:17.319Z,15.68
2019-04-22T10:58:22.784Z,17.05
2019-04-22T11:01:27.567Z,17.53
2019-04-22T11:04:32.252Z,16.52
2019-04-22T11:07:44.308Z,18.38
2019-04-22T11:10:54.249Z,15.68
2019-04-22T11:13:47.695Z,17.82
2019-04-22T11:16:51.471Z,12.31
2019-04-22T11:25:54.964Z,20.83
2019-04-22T11:28:59.354Z,15.09
2019-04-22T11:32:04.257Z,15.04
2019-04-22T11:35:09.886Z,13.53
2019-04-22T11:38:15.005Z,13.18
2019-04-22T11:41:19.469Z,14.40
2019-04-22T11:44:23.599Z,12.13
2019-04-22T11:47:27.515Z,12.77
2019-04-22T11:50:31.952Z,11.71
2019-04-22T11:53:36.708Z,12.43
2019-04-22T11:56:41.115Z,12.37
2019-04-22T11:59:45.080Z,11.34
2019-04-22T12:02:49.364Z,11.22
2019-04-22T12:05:53.082Z,11.93
2019-04-22T12:08:57.554Z,11.53
2019-04-22T12:12:03.414Z,12.00
2019-04-22T12:15:08.531Z,11.73
2019-04-22T12:18:15.293Z,12.37
2019-04-22T12:21:19.449Z,10.91
2019-04-22T12:24:24.964Z,11.11
2019-04-22T12:27:30.056Z,12.61
2019-04-22T12:30:35.250Z,11.71
2019-04-22T12:33:39.446Z,11.97
2019-04-22T12:36:44.846Z,11.62
2019-04-22T12:39:52.981Z,11.03
2019-04-22T12:42:55.412Z,11.48
2019-04-22T12:46:00.403Z,11.39
2019-04-22T12:49:04.606Z,11.37
2019-04-22T12:52:10.452Z,10.93
2019-04-22T12:55:17.312Z,12.12
2019-04-22T12:58:20.422Z,12.32
2019-04-22T13:01:24.687Z,11.29
2019-04-22T13:04:30.048Z,11.40
2019-04-22T13:07:33.963Z,11.53
2019-04-22T13:10:48.647Z,11.61
2019-04-22T13:13:44.957Z,12.29
2019-04-22T13:16:49.260Z,11.77
2019-04-22T13:19:54.086Z,12.92
2019-04-22T13:22:59.579Z,12.02
2019-04-22T13:26:03.371Z,12.13
2019-04-22T13:29:07.516Z,11.57
2019-04-22T13:32:13.011Z,11.35
2019-04-22T13:35:22.062Z,11.26
2019-04-22T13:38:27.040Z,11.79
2019-04-22T13:41:39.988Z,12.52
2019-04-22T13:44:37.695Z,12.84
2019-04-22T13:48:06.872Z,12.53
2019-04-22T13:51:15.083Z,12.79
2019-04-22T13:57:19.672Z,13.53
2019-04-22T14:00:05.702Z,13.23
2019-04-22T14:03:47.058Z,14.60
2019-04-22T14:06:50.845Z,13.66
2019-04-22T14:09:55.994Z,13.72
2019-04-22T14:13:02.007Z,14.69
2019-04-22T14:16:06.817Z,14.85
2019-04-22T14:19:11.890Z,15.47
2019-04-22T14:22:16.025Z,15.55
2019-04-22T14:25:20.817Z,17.00
2019-04-22T14:28:26.560Z,18.42
2019-04-22T14:31:30.810Z,17.57
2019-04-22T14:34:36.255Z,18.44
2019-04-22T14:37:40.376Z,17.61
2019-04-22T14:40:45.456Z,18.41
2019-04-22T14:44:45.125Z,19.38
2019-04-22T14:47:19.958Z,18.98
2019-04-22T14:50:22.313Z,19.47
2019-04-22T14:53:25.897Z,19.44
2019-04-22T14:56:13.731Z,19.96
2019-04-22T14:59:18.874Z,19.86
2019-04-22T15:02:23.681Z,20.68
2019-04-22T15:05:28.224Z,21.16
2019-04-22T15:08:32.982Z,20.74
2019-04-22T15:11:52.591Z,20.26
2019-04-22T15:14:43.601Z,20.58
2019-04-22T15:17:54.652Z,21.24
2019-04-22T15:21:02.736Z,21.14
2019-04-22T15:24:27.350Z,21.04
2019-04-22T15:27:31.388Z,21.72
2019-04-22T15:30:35.582Z,21.18
2019-04-22T15:33:39.636Z,21.33
2019-04-22T15:36:44.441Z,21.00
2019-04-22T15:39:49.756Z,21.67
2019-04-22T15:42:55.016Z,22.68
2019-04-22T15:46:02.354Z,23.86
2019-04-22T15:49:06.367Z,23.39
2019-04-22T15:52:12.527Z,24.50
2019-04-22T15:55:18.758Z,23.13
2019-04-22T15:58:23.823Z,22.84
2019-04-22T16:01:33.648Z,23.29
2019-04-22T16:04:34.713Z,24.04
2019-04-22T16:07:40.042Z,23.01
2019-04-22T16:10:44.156Z,25.90
2019-04-22T16:13:48.383Z,24.08
2019-04-22T16:16:54.589Z,23.46
2019-04-22T16:19:59.410Z,24.23
2019-04-22T16:23:32.164Z,25.44
2019-04-22T16:26:58.198Z,23.93
2019-04-22T16:30:03.417Z,24.80
2019-04-22T16:33:07.965Z,25.26
2019-04-22T16:36:13.018Z,24.76
2019-04-22T16:39:18.509Z,25.05
2019-04-22T16:42:31.647Z,24.79
2019-04-22T16:45:27.761Z,26.08
2019-04-22T16:48:31.722Z,26.41
2019-04-22T16:51:38.221Z,26.13
2019-04-22T16:54:42.189Z,26.23
2019-04-22T16:57:46.358Z,27.18
2019-04-22T17:00:50.199Z,27.12
2019-04-22T17:04:06.818Z,27.44
2019-04-22T17:07:13.968Z,27.17
2019-04-22T17:10:18.008Z,26.85
2019-04-22T17:13:26.494Z,28.16
2019-04-22T17:16:28.462Z,27.27
2019-04-22T17:19:33.319Z,28.64
2019-04-22T17:22:37.719Z,28.18
2019-04-22T17:25:42.629Z,28.29
2019-04-22T17:28:46.603Z,28.85
2019-04-22T17:31:58.453Z,29.25
2019-04-22T17:34:57.266Z,29.25
2019-04-22T17:38:10.124Z,29.76
2019-04-22T17:41:21.206Z,30.12
2019-04-22T17:47:52.178Z,31.30
2019-04-22T17:51:16.063Z,32.62
2019-04-22T17:54:26.918Z,33.46
2019-04-22T17:57:17.901Z,32.96
2019-04-22T18:00:21.212Z,32.31
2019-04-22T18:03:17.570Z,31.16
2019-04-22T18:06:42.657Z,32.46
2019-04-22T18:10:14.093Z,33.97
2019-04-22T18:12:53.539Z,33.02
2019-04-22T18:15:51.492Z,33.03
2019-04-22T18:18:56.870Z,34.30
2019-04-22T18:21:51.687Z,33.96
2019-04-22T18:24:58.250Z,34.67
2019-04-22T18:31:13.683Z,34.09
2019-04-22T18:34:16.959Z,34.00
2019-04-22T18:37:23.718Z,34.36
2019-04-22T18:40:31.056Z,33.85
2019-04-22T18:43:42.441Z,35.60
2019-04-22T18:46:42.717Z,34.62
2019-04-22T18:49:46.089Z,35.71
2019-04-22T18:53:03.242Z,34.99
2019-04-22T18:56:16.367Z,35.10
2019-04-22T18:59:09.075Z,35.69
2019-04-22T19:02:09.057Z,35.40
2019-04-22T19:05:23.566Z,37.01
2019-04-22T19:08:36.977Z,37.08
2019-04-22T19:11:53.915Z,37.22
2019-04-22T19:14:58.987Z,37.73
2019-04-22T19:18:01.763Z,36.74
2019-04-22T19:21:02.755Z,36.88
2019-04-22T19:24:00.343Z,35.97
2019-04-22T19:27:09.249Z,36.48
2019-04-22T19:30:16.571Z,36.72
2019-04-22T19:33:23.595Z,37.42
2019-04-22T19:36:26.107Z,36.28
2019-04-22T19:39:29.833Z,36.50
2019-04-22T19:42:46.136Z,36.28
2019-04-22T19:45:42.986Z,36.75
2019-04-22T19:48:53.075Z,36.87
2019-04-22T19:52:05.675Z,37.04
2019-04-22T19:55:01.846Z,37.05
2019-04-22T19:58:13.164Z,36.85
2019-04-22T20:01:37.005Z,37.65
2019-04-22T20:04:55.330Z,37.15
2019-04-22T20:07:49.702Z,37.49
2019-04-22T20:11:03.951Z,37.73
2019-04-22T20:14:10.972Z,37.78
2019-04-22T20:17:07.972Z,38.61
2019-04-22T20:20:26.431Z,37.68
2019-04-22T20:23:20.470Z,39.82
2019-04-22T20:26:23.487Z,38.42
2019-04-22T20:29:37.763Z,37.95
2019-04-22T20:32:37.337Z,37.82
2019-04-22T20:35:46.571Z,37.83
2019-04-22T20:38:49.473Z,38.00
2019-04-22T20:42:05.579Z,38.40
2019-04-22T20:45:05.713Z,38.26
2019-04-22T20:48:00.202Z,39.67
2019-04-22T20:51:17.139Z,39.32
2019-04-22T20:54:19.315Z,39.34
2019-04-22T20:57:26.275Z,40.22
2019-04-22T21:00:29.389Z,39.50
2019-04-22T21:03:27.411Z,39.51
2019-04-22T21:06:44.274Z,39.88
2019-04-22T21:09:52.405Z,39.81
2019-04-22T21:12:41.814Z,40.33
2019-04-22T21:16:06.265Z,41.18
2019-04-22T21:19:04.403Z,40.73
2019-04-22T21:22:19.384Z,41.95
2019-04-22T21:25:11.328Z,40.42
2019-04-22T21:28:21.513Z,40.67
2019-04-22T21:31:30.724Z,41.02
2019-04-22T21:34:32.282Z,41.27
2019-04-22T21:37:43.198Z,42.46
2019-04-22T21:40:42.782Z,42.36
2019-04-22T21:43:52.653Z,42.24
2019-04-22T21:47:03.348Z,41.88
2019-04-22T21:50:21.546Z,41.91
2019-04-22T21:53:14.552Z,42.33
2019-04-22T21:56:35.257Z,42.27
2019-04-22T21:59:19.172Z,42.63
2019-04-22T22:05:28.416Z,43.38
2019-04-22T22:08:40.234Z,43.06
2019-04-22T22:11:46.786Z,43.50
2019-04-22T22:14:51.547Z,44.83
2019-04-22T22:17:55.515Z,44.56
2019-04-22T22:21:19.389Z,43.86
2019-04-22T22:24:10.132Z,44.01
2019-04-22T22:27:14.618Z,44.07
2019-04-22T22:30:40.049Z,44.13
2019-04-22T22:33:24.235Z,45.09
2019-04-22T22:36:27.128Z,44.42
2019-04-22T22:39:29.804Z,44.80
2019-04-22T22:42:29.064Z,44.78
2019-04-22T22:45:37.006Z,45.64
2019-04-22T22:49:03.199Z,45.78
2019-04-22T22:52:16.680Z,45.86
2019-04-22T22:55:06.872Z,46.12
2019-04-22T22:58:11.474Z,46.31
2019-04-22T23:01:14.980Z,46.63
2019-04-22T23:04:30.647Z,46.72
2019-04-22T23:07:46.326Z,46.83
2019-04-22T23:10:45.385Z,47.59
2019-04-22T23:13:42.806Z,48.13
2019-04-22T23:16:33.954Z,47.97
2019-04-22T23:19:33.673Z,47.78
2019-04-22T23:22:58.964Z,48.23
2019-04-22T23:25:59.706Z,48.67
2019-04-22T23:29:07.210Z,48.89
2019-04-22T23:32:17.240Z,49.08
2019-04-22T23:35:36.987Z,49.40
2019-04-22T23:38:54.935Z,49.32
2019-04-22T23:42:17.989Z,49.27
2019-04-22T23:45:03.825Z,49.04
2019-04-22T23:47:49.903Z,49.40
2019-04-22T23:51:10.766Z,49.88
2019-04-22T23:54:13.173Z,49.76
2019-04-22T23:57:15.472Z,49.58
